EGTK/OXF METAR and TAF weather

Enter ICAO airport designator
Station Type Date Time Source
EGTK METAR 2019/04/19 21:20 UTC NOAA

EGTK 192120Z 02002KT CAVOK 14/07 Q1031


Station Type Date Time Source
EGTK Decoded METAR 2019/04/19 21:20 UTC NOAA

Station name not available
Apr 19, 2019 - 05:20 PM EDT / 2019.04.19 2120 UTC
Wind: from the NNE (020 degrees) at 2 MPH (2 KT):0
Visibility: greater than 7 mile(s):0
Temperature: 57 F (14 C)
Dew Point: 44 F (7 C)
Relative Humidity: 62%
Pressure (altimeter): 30.45 in. Hg (1031 hPa)
ob: EGTK 192120Z 02002KT CAVOK 14/07 Q1031
cycle: 21

Station Type Date Time Source
EGTK TAF UTC NOAA

Error!

Example: see airport list